Pleasant View, Utah
Current Conditions -  °F | °C
As of 12:53 PM on Friday 19 Dec 2014 (Local Time) from KOGD Reporting Station
Overcast Overcast  
Wind Chill: 37°   Ceiling: 8000
Heat Index: 43°   Visibility: 10mi
Dew Point: 28°   Wind: 12mph
Humidity: 56%   Direction: 160°SSE
Pressure: 30.13"   Gusts: NA
Location:  41.3178°N, 111.954°W
Report Text: KOGD 191953Z AUTO 16010KT 10SM OVC080 06/M02 A3013 RMK AO2 SLP206 T00611022 TSNO
Loading
Personal Weather Stations






























Interactive Weather Map New forecast layout! Learn more

10-Day Weather Forecast

Advertisements
Track Severe Weather on mobile